Time;durP1;ratioP1;P1;durP2;ratioP2;P2;SDS_P1;SDS_P2;PMS_P1;PMS_P2;Temp;Humidity;BMP_temperature;BMP_pressure;BME280_temperature;BME280_humidity;BME280_pressure;Samples;Min_cycle;Max_cycle;Signal;HPM_P1;HPM_P2
2022/06/19 08:02:34;;;;;;;;;;;;;;;29.13;48.52;96478.63;4204550;27;10430;-71
2022/06/19 08:04:37;;;;;;;;;;;;;;;29.38;48.02;96479.75;4190317;28;5815;-72
2022/06/19 08:06:44;;;;;;;;;;;;;;;29.59;47.66;96479.91;4191286;28;5918;-73
2022/06/19 08:08:48;;;;;;;;;;;;;;;29.73;47.39;96480.53;4194622;28;5822;-72
2022/06/19 08:10:53;;;;;;;;;;;;;;;29.83;47.02;96488.34;4192988;28;5858;-73
2022/06/19 08:12:58;;;;;;;;;;;;;;;29.92;46.56;96478.25;4195352;28;5723;-72
2022/06/19 08:15:01;;;;;;;;;;;;;;;29.99;46.25;96478.53;4194514;28;7768;-73
2022/06/19 08:17:04;;;;;;;;;;;;;;;30.06;46.06;96478.06;4193746;28;5807;-73
2022/06/19 08:19:09;;;;;;;;;;;;;;;30.10;45.72;96473.53;4188032;28;5811;-73
2022/06/19 08:21:14;;;;;;;;;;;;;;;30.13;45.63;96476.44;4193698;28;6481;-72
2022/06/19 08:23:17;;;;;;;;;;;;;;;30.15;45.39;96481.56;4197567;28;5858;-73
2022/06/19 08:25:22;;;;;;;;;;;;;;;30.14;45.12;96475.31;4192716;28;5858;-74
2022/06/19 08:27:25;;;;;;;;;;;;;;;30.19;44.83;96473.53;4187259;28;5776;-72
2022/06/19 08:29:28;;;;;;;;;;;;;;;30.23;44.77;96471.72;4189246;28;6068;-73
2022/06/19 08:31:33;;;;;;;;;;;;;;;30.23;44.46;96467.06;4180053;28;5815;-73
2022/06/19 08:33:36;;;;;;;;;;;;;;;30.25;44.26;96464.03;4191644;28;5815;-73
2022/06/19 08:35:44;;;;;;;;;;;;;;;30.27;44.21;96480.88;4191520;28;5940;-73
2022/06/19 08:37:51;;;;;;;;;;;;;;;30.29;43.97;96470.44;4193710;28;5818;-72
2022/06/19 08:39:54;;;;;;;;;;;;;;;30.34;43.67;96472.97;4197541;28;5802;-71
2022/06/19 08:42:29;;;;;;;;;;;;;;;30.36;43.81;96476.19;4199956;28;5954;-73
2022/06/19 08:44:46;;;;;;;;;;;;;;;30.32;43.47;96491.59;4179125;28;5802;-73
2022/06/19 08:47:02;;;;;;;;;;;;;;;30.32;43.40;96491.59;4184474;28;5829;-73
2022/06/19 08:49:24;;;;;;;;;;;;;;;30.33;43.14;96483.06;4194020;28;5826;-73
2022/06/19 08:51:39;;;;;;;;;;;;;;;30.36;43.00;96481.63;4177910;28;5843;-72
2022/06/19 08:53:58;;;;;;;;;;;;;;;30.36;42.98;96493.34;4192885;28;5954;-73
2022/06/19 08:56:09;;;;;;;;;;;;;;;30.37;42.64;96480.50;4194445;28;5846;-72
2022/06/19 08:58:32;;;;;;;;;;;;;;;30.38;42.46;96471.19;4192491;28;6539;-72
2022/06/19 09:00:49;;;;;;;;;;;;;;;30.34;42.50;96467.50;4189242;28;5913;-73
2022/06/19 09:03:04;;;;;;;;;;;;;;;30.34;42.45;96472.97;4190413;28;5920;-73
2022/06/19 09:05:36;;;;;;;;;;;;;;;30.37;42.45;96466.88;4191222;28;5953;-72
2022/06/19 09:07:56;;;;;;;;;;;;;;;30.40;42.15;96477.13;4170162;28;5937;-72
2022/06/19 09:10:17;;;;;;;;;;;;;;;30.41;42.00;96478.72;4182874;28;5814;-73
2022/06/19 09:12:34;;;;;;;;;;;;;;;30.45;41.97;96474.19;4182918;28;5799;-70
2022/06/19 09:14:39;;;;;;;;;;;;;;;30.44;41.88;96478.84;4181983;28;5810;-68
2022/06/19 09:16:53;;;;;;;;;;;;;;;30.45;42.00;96479.66;4178975;28;5827;-72
2022/06/19 09:19:06;;;;;;;;;;;;;;;30.46;41.91;96466.81;4173299;28;5836;-68
2022/06/19 09:21:12;;;;;;;;;;;;;;;30.50;41.75;96474.03;4165149;28;5788;-68
2022/06/19 09:23:34;;;;;;;;;;;;;;;30.52;41.83;96469.03;4177470;28;5913;-66
2022/06/19 09:25:52;;;;;;;;;;;;;;;30.52;41.62;96474.47;4177762;28;5824;-63
2022/06/19 09:28:00;;;;;;;;;;;;;;;30.54;41.37;96472.22;4176831;28;5825;-77
2022/06/19 09:30:13;;;;;;;;;;;;;;;30.55;41.65;96471.09;4182129;28;5891;-77
2022/06/19 09:32:22;;;;;;;;;;;;;;;30.55;41.37;96467.56;4180206;28;5964;-70
2022/06/19 09:34:32;;;;;;;;;;;;;;;30.56;41.54;96467.22;4178087;28;7738;-70
2022/06/19 09:36:39;;;;;;;;;;;;;;;30.57;41.34;96465.31;4175945;28;5783;-70
2022/06/19 09:38:48;;;;;;;;;;;;;;;30.56;41.06;96463.72;4173820;28;5835;-70
2022/06/19 09:40:56;;;;;;;;;;;;;;;30.59;41.37;96463.88;4177870;28;5068;-70
2022/06/19 09:43:05;;;;;;;;;;;;;;;30.61;41.38;96464.34;4171366;28;5819;-70
2022/06/19 09:45:14;;;;;;;;;;;;;;;30.63;41.06;96462.09;4173681;28;5719;-69
2022/06/19 09:47:24;;;;;;;;;;;;;;;30.64;41.23;96452.78;4184592;28;5708;-70
2022/06/19 09:49:34;;;;;;;;;;;;;;;30.64;41.08;96460.97;4180223;28;5728;-68
2022/06/19 09:51:45;;;;;;;;;;;;;;;30.64;41.29;96457.44;4183014;28;5703;-69
2022/06/19 09:54:07;;;;;;;;;;;;;;;30.63;40.82;96453.09;4178466;28;5715;-69
2022/06/19 09:56:16;;;;;;;;;;;;;;;30.62;41.00;96452.28;4183369;28;5731;-70
2022/06/19 09:58:25;;;;;;;;;;;;;;;30.67;41.15;96459.50;4179938;28;5646;-68
2022/06/19 10:00:32;;;;;;;;;;;;;;;30.67;40.98;96449.38;4184672;28;5843;-66
2022/06/19 10:03:00;;;;;;;;;;;;;;;30.69;41.37;96454.50;4185684;28;5787;-70
2022/06/19 10:05:21;;;;;;;;;;;;;;;30.70;40.92;96453.41;4178754;28;5810;-68
2022/06/19 10:07:32;;;;;;;;;;;;;;;30.74;40.75;96456.25;4183288;28;5808;-70
2022/06/19 10:09:43;;;;;;;;;;;;;;;30.76;40.63;96448.53;4180863;28;5733;-70
2022/06/19 10:11:46;;;;;;;;;;;;;;;30.82;40.67;96450.75;4182687;28;5778;-69
2022/06/19 10:13:54;;;;;;;;;;;;;;;30.85;40.29;96439.16;4178393;28;5882;-69
2022/06/19 10:16:01;;;;;;;;;;;;;;;30.88;40.44;96437.69;4178322;28;5719;-67
2022/06/19 10:18:11;;;;;;;;;;;;;;;30.89;40.59;96439.28;4184447;28;5968;-66
2022/06/19 10:20:17;;;;;;;;;;;;;;;30.90;40.16;96433.50;4181669;28;5891;-68
2022/06/19 10:22:35;;;;;;;;;;;;;;;30.92;40.31;96438.63;4184270;28;5727;-67
2022/06/19 10:24:56;;;;;;;;;;;;;;;30.91;39.83;96426.09;4182874;28;5719;-68
2022/06/19 10:27:09;;;;;;;;;;;;;;;30.93;40.18;96424.66;4185141;28;5084;-69
2022/06/19 10:29:35;;;;;;;;;;;;;;;30.98;39.76;96431.84;4177138;28;5775;-68
2022/06/19 10:31:55;;;;;;;;;;;;;;;31.03;39.66;96426.16;4183517;28;5752;-67
2022/06/19 10:34:12;;;;;;;;;;;;;;;31.05;39.72;96421.19;4170708;28;5741;-69
2022/06/19 10:36:23;;;;;;;;;;;;;;;31.07;39.70;96423.59;4181697;28;5852;-71
2022/06/19 10:38:48;;;;;;;;;;;;;;;31.07;39.68;96423.59;4174033;28;5716;-69
2022/06/19 10:40:59;;;;;;;;;;;;;;;31.12;39.30;96410.50;4178229;28;5707;-68
2022/06/19 10:43:19;;;;;;;;;;;;;;;31.18;39.17;96416.59;4182805;28;5782;-66
2022/06/19 10:45:33;;;;;;;;;;;;;;;31.20;39.13;96423.34;4179019;28;5677;-68
2022/06/19 10:48:00;;;;;;;;;;;;;;;31.21;39.41;96413.22;4170398;28;5708;-69
2022/06/19 10:50:13;;;;;;;;;;;;;;;31.23;39.31;96417.19;4180938;28;5732;-66
2022/06/19 10:52:24;;;;;;;;;;;;;;;31.24;39.01;96407.88;4179233;28;5954;-66
2022/06/19 10:55:02;;;;;;;;;;;;;;;31.31;38.80;96409.25;4176627;28;5087;-67
2022/06/19 10:57:16;;;;;;;;;;;;;;;31.34;38.72;96406.66;4181770;28;5716;-67
2022/06/19 10:59:21;;;;;;;;;;;;;;;31.35;38.60;96397.31;4182772;28;5727;-67
2022/06/19 11:04:08;;;;;;;;;;;;;;;31.41;38.68;96401.44;4172187;28;5810;-66
2022/06/19 11:06:15;;;;;;;;;;;;;;;31.44;38.61;96399.97;4171963;28;5819;-66
2022/06/19 11:08:21;;;;;;;;;;;;;;;31.48;38.45;96400.88;4173346;28;5915;-67
2022/06/19 11:10:36;;;;;;;;;;;;;;;31.50;38.14;96402.16;4171802;28;5883;-67
2022/06/19 11:12:43;;;;;;;;;;;;;;;31.50;38.47;96399.44;4172809;28;5707;-67
2022/06/19 11:14:51;;;;;;;;;;;;;;;31.51;37.95;96401.03;4175762;28;5661;-66
2022/06/19 11:16:57;;;;;;;;;;;;;;;31.53;38.35;96396.03;4167585;28;5967;-67
2022/06/19 11:19:00;;;;;;;;;;;;;;;31.56;37.97;96397.28;4171326;28;6167;-66
2022/06/19 11:21:05;;;;;;;;;;;;;;;31.58;37.77;96395.78;4182382;28;5786;-76
2022/06/19 11:23:25;;;;;;;;;;;;;;;31.64;37.59;96390.13;4180085;28;5650;-74
2022/06/19 11:25:37;;;;;;;;;;;;;;;31.66;37.39;96391.38;4182816;28;5944;-74
2022/06/19 11:27:51;;;;;;;;;;;;;;;31.68;37.75;96389.09;4187691;28;6193;-74
2022/06/19 11:29:58;;;;;;;;;;;;;;;31.70;37.23;96384.09;4168345;28;5733;-73
2022/06/19 11:32:10;;;;;;;;;;;;;;;31.73;37.50;96386.16;4187779;28;6677;-74
2022/06/19 11:36:41;;;;;;;;;;;;;;;31.76;37.53;96380.03;4187019;28;5906;-74
2022/06/19 11:38:49;;;;;;;;;;;;;;;31.79;37.23;96379.34;4179794;28;5712;-74
2022/06/19 11:40:52;;;;;;;;;;;;;;;31.81;36.80;96385.28;4179194;28;5142;-73
2022/06/19 11:43:00;;;;;;;;;;;;;;;31.81;37.07;96371.59;4183287;28;5849;-74
2022/06/19 11:45:21;;;;;;;;;;;;;;;31.82;37.26;96367.72;4183326;28;5859;-74
2022/06/19 11:47:33;;;;;;;;;;;;;;;31.88;37.19;96373.78;4172480;28;5835;-73
2022/06/19 11:49:39;;;;;;;;;;;;;;;31.95;37.07;96365.03;4179626;28;5757;-74
2022/06/19 11:52:02;;;;;;;;;;;;;;;31.96;36.66;96367.44;4180172;28;5819;-73
2022/06/19 11:54:11;;;;;;;;;;;;;;;32.02;36.82;96359.78;4174919;28;5771;-73
2022/06/19 11:56:22;;;;;;;;;;;;;;;32.01;36.32;96360.91;4178977;28;5826;-72
2022/06/19 11:58:39;;;;;;;;;;;;;;;31.99;36.72;96363.19;4164964;28;5890;-72
2022/06/19 12:00:45;;;;;;;;;;;;;;;32.01;36.37;96363.66;4180823;28;5819;-72
2022/06/19 12:02:56;;;;;;;;;;;;;;;32.05;36.06;96356.34;4181266;28;5846;-73
2022/06/19 12:05:02;;;;;;;;;;;;;;;32.04;36.17;96357.50;4180659;28;5901;-73
2022/06/19 12:07:14;;;;;;;;;;;;;;;32.05;35.97;96353.63;4180038;28;5818;-73
2022/06/19 12:09:32;;;;;;;;;;;;;;;32.04;35.89;96349.28;4180194;28;5814;-73
2022/06/19 12:11:38;;;;;;;;;;;;;;;32.07;36.02;96352.16;4180944;28;5841;-72
2022/06/19 12:13:45;;;;;;;;;;;;;;;32.08;35.69;96353.75;4180806;28;5822;-72
2022/06/19 12:15:55;;;;;;;;;;;;;;;32.11;35.67;96353.06;4179339;28;5753;-72
2022/06/19 12:18:01;;;;;;;;;;;;;;;32.12;35.45;96354.66;4180916;28;5839;-72
2022/06/19 12:20:24;;;;;;;;;;;;;;;32.15;35.59;96344.97;4181071;28;5842;-72
2022/06/19 12:22:40;;;;;;;;;;;;;;;32.17;35.70;96345.44;4180716;28;5854;-73
2022/06/19 12:24:47;;;;;;;;;;;;;;;32.18;35.62;96344.28;4179353;28;6455;-73
2022/06/19 12:26:56;;;;;;;;;;;;;;;32.18;35.32;96347.03;4180886;28;5806;-73
2022/06/19 12:29:11;;;;;;;;;;;;;;;32.19;35.07;96339.63;4179306;28;5760;-73
2022/06/19 12:31:18;;;;;;;;;;;;;;;32.23;35.40;96341.31;4180811;28;5857;-73
2022/06/19 12:33:27;;;;;;;;;;;;;;;32.31;35.11;96331.44;4180965;28;5826;-73
2022/06/19 12:35:34;;;;;;;;;;;;;;;32.37;34.95;96338.25;4180817;28;5815;-72
2022/06/19 12:37:37;;;;;;;;;;;;;;;32.40;35.12;96330.16;4181460;28;5795;-73
2022/06/19 12:39:40;;;;;;;;;;;;;;;32.44;34.37;96328.31;4183885;28;5966;-72
2022/06/19 12:41:51;;;;;;;;;;;;;;;32.48;34.77;96331.16;4183867;28;6032;-72
2022/06/19 12:44:07;;;;;;;;;;;;;;;32.51;34.73;96335.16;4183810;28;5854;-72
2022/06/19 12:46:21;;;;;;;;;;;;;;;32.45;34.76;96320.91;4183718;28;5727;-73
2022/06/19 12:48:36;;;;;;;;;;;;;;;32.43;34.42;96331.41;4183804;28;5886;-73
2022/06/19 12:50:48;;;;;;;;;;;;;;;32.50;34.13;96326.13;4183817;28;5806;-73
2022/06/19 12:53:03;;;;;;;;;;;;;;;32.53;34.36;96330.13;4182316;28;5826;-73
2022/06/19 12:55:28;;;;;;;;;;;;;;;32.56;33.97;96324.75;4176135;28;5858;-73
2022/06/19 12:58:16;;;;;;;;;;;;;;;32.60;33.97;96316.63;4183540;28;5826;-73
2022/06/19 13:00:36;;;;;;;;;;;;;;;32.61;34.05;96310.81;4115888;28;5912;-73
2022/06/19 13:02:56;;;;;;;;;;;;;;;32.62;34.22;96311.59;4115739;28;5915;-73
2022/06/19 13:05:09;;;;;;;;;;;;;;;32.65;34.20;96316.41;4116012;28;5886;-73
2022/06/19 13:07:26;;;;;;;;;;;;;;;32.65;33.93;96308.19;4115576;28;5870;-73
2022/06/19 13:09:44;;;;;;;;;;;;;;;32.67;33.98;96303.16;4099793;28;5907;-73
2022/06/19 13:11:55;;;;;;;;;;;;;;;32.69;33.60;96300.88;4099705;28;5911;-73
2022/06/19 13:14:23;;;;;;;;;;;;;;;32.66;33.39;96296.91;4115728;28;5886;-73
2022/06/19 13:16:39;;;;;;;;;;;;;;;32.67;33.23;96290.28;4115557;28;6592;-73
2022/06/19 13:18:57;;;;;;;;;;;;;;;32.72;32.89;96292.75;4115732;28;5886;-73
2022/06/19 13:21:10;;;;;;;;;;;;;;;32.78;32.86;96287.84;4115574;28;5890;-74
2022/06/19 13:23:21;;;;;;;;;;;;;;;32.81;32.71;96283.63;4115296;28;5922;-73
2022/06/19 13:25:30;;;;;;;;;;;;;;;32.86;32.55;96286.16;4115567;28;7171;-74
2022/06/19 13:27:59;;;;;;;;;;;;;;;32.83;32.30;96287.63;4115494;28;5923;-74
2022/06/19 13:30:18;;;;;;;;;;;;;;;32.83;32.74;96279.41;4115729;28;6031;-73
2022/06/19 13:32:31;;;;;;;;;;;;;;;32.83;32.52;96284.88;4115639;28;5943;-74
2022/06/19 13:34:45;;;;;;;;;;;;;;;32.83;32.59;96278.63;4115527;28;5975;-73
2022/06/19 13:37:02;;;;;;;;;;;;;;;32.89;31.88;96286.22;4164709;28;6159;-73
2022/06/19 13:39:19;;;;;;;;;;;;;;;32.93;32.19;96284.38;4182982;28;5874;-73
2022/06/19 13:41:34;;;;;;;;;;;;;;;32.93;32.17;96278.09;4182901;28;6856;-73
2022/06/19 13:43:51;;;;;;;;;;;;;;;32.90;31.95;96274.13;4181596;28;5879;-73
2022/06/19 13:46:05;;;;;;;;;;;;;;;32.86;32.05;96277.94;4183023;28;5837;-74
2022/06/19 13:48:15;;;;;;;;;;;;;;;32.93;31.37;96273.44;4182998;28;5814;-73
2022/06/19 13:50:25;;;;;;;;;;;;;;;32.98;31.74;96270.44;4182943;28;5806;-73
2022/06/19 13:52:49;;;;;;;;;;;;;;;32.96;31.40;96267.28;4182089;28;5819;-73
2022/06/19 13:55:01;;;;;;;;;;;;;;;32.96;31.36;96266.47;4181263;28;5104;-74
2022/06/19 13:57:10;;;;;;;;;;;;;;;33.00;31.01;96272.84;4175697;28;5848;-73
2022/06/19 13:59:44;;;;;;;;;;;;;;;33.01;31.52;96264.25;4164948;28;5768;-73
2022/06/19 14:01:54;;;;;;;;;;;;;;;32.97;31.10;96268.88;4176655;28;5815;-73
2022/06/19 14:04:50;;;;;;;;;;;;;;;32.99;30.92;96265.78;4182994;28;5794;-73
2022/06/19 14:07:19;;;;;;;;;;;;;;;33.01;31.15;96256.06;4182731;28;5830;-74
2022/06/19 14:09:29;;;;;;;;;;;;;;;32.98;31.22;96264.97;4182745;28;5853;-74
2022/06/19 14:13:57;;;;;;;;;;;;;;;32.96;30.60;96256.31;4182280;28;5877;-74
2022/06/19 14:16:10;;;;;;;;;;;;;;;32.91;30.78;96245.63;4182903;28;5830;-74
2022/06/19 14:18:20;;;;;;;;;;;;;;;32.89;30.86;96247.91;4182630;28;6842;-74
2022/06/19 14:20:38;;;;;;;;;;;;;;;32.94;30.94;96257.78;4182304;28;6532;-72
2022/06/19 14:22:49;;;;;;;;;;;;;;;32.95;31.02;96246.50;4182604;28;5902;-73
2022/06/19 14:25:01;;;;;;;;;;;;;;;32.95;31.06;96248.44;4182524;28;5813;-73
2022/06/19 14:27:17;;;;;;;;;;;;;;;32.99;30.58;96243.88;4180725;28;5745;-73
2022/06/19 14:29:35;;;;;;;;;;;;;;;33.05;30.90;96239.72;4182673;28;5806;-73
2022/06/19 14:31:38;;;;;;;;;;;;;;;33.08;30.31;96241.75;4182529;28;5802;-73
2022/06/19 14:33:45;;;;;;;;;;;;;;;33.06;30.80;96241.28;4182386;28;5814;-74
2022/06/19 14:36:04;;;;;;;;;;;;;;;33.02;30.61;96240.41;4182128;28;6776;-73
2022/06/19 14:38:23;;;;;;;;;;;;;;;33.01;30.75;96234.16;4182214;28;5741;-73
2022/06/19 14:40:57;;;;;;;;;;;;;;;33.00;30.69;96231.75;4182404;28;5850;-73
2022/06/19 14:43:06;;;;;;;;;;;;;;;32.98;30.86;96223.91;4147046;28;5803;-73
2022/06/19 14:45:15;;;;;;;;;;;;;;;33.01;30.36;96225.13;4146958;28;5837;-73
2022/06/19 14:47:28;;;;;;;;;;;;;;;32.98;30.80;96226.66;4146763;28;5814;-73
2022/06/19 14:50:10;;;;;;;;;;;;;;;32.97;30.46;96230.53;4144996;28;5823;-73
2022/06/19 14:52:26;;;;;;;;;;;;;;;32.98;30.51;96226.66;4144214;28;5784;-71
2022/06/19 14:54:47;;;;;;;;;;;;;;;33.06;30.40;96226.81;4142424;28;5795;-67
2022/06/19 14:57:08;;;;;;;;;;;;;;;33.09;30.74;96228.88;4143432;28;5795;-67
2022/06/19 14:59:21;;;;;;;;;;;;;;;33.09;30.78;96209.69;4143991;28;5795;-67
2022/06/19 15:01:27;;;;;;;;;;;;;;;33.04;30.64;96218.16;4141855;28;7955;-68
2022/06/19 15:03:40;;;;;;;;;;;;;;;33.03;30.37;96216.56;4144195;28;6716;-67
2022/06/19 15:05:51;;;;;;;;;;;;;;;33.00;30.53;96224.34;4141125;28;5824;-70
2022/06/19 15:08:01;;;;;;;;;;;;;;;32.99;30.64;96220.03;4114723;28;5920;-67
2022/06/19 15:10:20;;;;;;;;;;;;;;;33.00;30.39;96213.41;4137792;28;5818;-72
2022/06/19 15:12:27;;;;;;;;;;;;;;;33.03;30.90;96216.56;4138680;28;5816;-67
2022/06/19 15:14:32;;;;;;;;;;;;;;;33.03;30.71;96217.38;4140814;28;5810;-72
2022/06/19 15:16:39;;;;;;;;;;;;;;;33.05;31.01;96217.00;4142758;28;5827;-73
2022/06/19 15:18:51;;;;;;;;;;;;;;;33.04;30.44;96212.69;4145511;28;5815;-75
2022/06/19 15:21:27;;;;;;;;;;;;;;;33.12;30.77;96217.19;4176643;28;5851;-73
2022/06/19 15:23:46;;;;;;;;;;;;;;;33.15;30.82;96209.06;4176912;28;5826;-70
2022/06/19 15:25:49;;;;;;;;;;;;;;;33.14;30.51;96212.97;4175682;28;5818;-75
2022/06/19 15:27:52;;;;;;;;;;;;;;;33.15;30.82;96208.28;4175720;28;5847;-80
2022/06/19 15:29:59;;;;;;;;;;;;;;;33.16;31.18;96210.66;4176421;28;5820;-74
2022/06/19 15:32:32;;;;;;;;;;;;;;;33.17;30.81;96208.72;4171887;28;6640;-84
2022/06/19 15:34:51;;;;;;;;;;;;;;;33.19;30.85;96209.97;4152913;28;5845;-84
2022/06/19 15:37:22;;;;;;;;;;;;;;;33.21;31.37;96204.13;4177940;28;5799;-71
2022/06/19 15:39:43;;;;;;;;;;;;;;;33.19;31.01;96203.69;4175717;28;5818;-78
2022/06/19 15:42:24;;;;;;;;;;;;;;;33.15;31.34;96202.78;4179127;28;5876;-69
2022/06/19 15:45:09;;;;;;;;;;;;;;;33.10;31.81;96197.59;4177526;28;5870;-73
2022/06/19 15:48:06;;;;;;;;;;;;;;;33.09;31.83;96198.75;4171663;28;5870;-74
2022/06/19 15:50:20;;;;;;;;;;;;;;;33.07;31.88;96190.84;4176319;28;5811;-74
2022/06/19 15:52:37;;;;;;;;;;;;;;;33.06;31.76;96189.28;4170218;28;5934;-81
2022/06/19 15:54:42;;;;;;;;;;;;;;;33.10;32.07;96183.91;4172404;28;5855;-73
2022/06/19 15:56:49;;;;;;;;;;;;;;;33.14;31.64;96179.31;4175825;28;5859;-71
2022/06/19 15:58:57;;;;;;;;;;;;;;;33.18;32.17;96174.69;4174905;28;5872;-69
2022/06/19 16:01:04;;;;;;;;;;;;;;;33.17;32.18;96179.38;4176368;28;5835;-70
2022/06/19 16:03:16;;;;;;;;;;;;;;;33.15;31.92;96178.94;4175198;28;5748;-71
2022/06/19 16:05:25;;;;;;;;;;;;;;;33.14;32.08;96174.63;4172456;28;5865;-79
2022/06/19 16:07:33;;;;;;;;;;;;;;;33.14;32.46;96171.09;4177481;28;5862;-81
2022/06/19 16:09:50;;;;;;;;;;;;;;;33.12;32.08;96173.38;4178869;28;5894;-80
2022/06/19 16:11:59;;;;;;;;;;;;;;;33.13;32.47;96174.97;4173058;28;5818;-78
2022/06/19 16:14:02;;;;;;;;;;;;;;;33.11;32.51;96169.84;4176623;28;5854;-74
2022/06/19 16:16:21;;;;;;;;;;;;;;;33.09;32.20;96168.63;4177019;28;5905;-73
2022/06/19 16:18:26;;;;;;;;;;;;;;;33.09;32.50;96168.63;4182119;28;5854;-77
2022/06/19 16:20:33;;;;;;;;;;;;;;;33.07;32.70;96159.94;4183170;28;5798;-78
2022/06/19 16:22:37;;;;;;;;;;;;;;;33.04;32.48;96166.13;4181971;28;5822;-74
2022/06/19 16:24:51;;;;;;;;;;;;;;;33.03;33.17;96161.81;4179728;28;5744;-73
2022/06/19 16:26:57;;;;;;;;;;;;;;;33.02;33.21;96166.50;4184399;28;6888;-77
2022/06/19 16:29:03;;;;;;;;;;;;;;;33.01;33.43;96165.69;4184117;28;7714;-68
2022/06/19 16:31:09;;;;;;;;;;;;;;;32.99;33.56;96162.53;4185176;28;5728;-69
2022/06/19 16:33:17;;;;;;;;;;;;;;;32.97;33.74;96162.09;4188530;28;5731;-69
2022/06/19 16:45:15;;;;;;;;;;;;;;;32.82;34.85;96168.31;4181561;28;5854;-78
2022/06/19 16:47:25;;;;;;;;;;;;;;;32.79;35.01;96166.28;4181164;28;6020;-78
2022/06/19 16:49:30;;;;;;;;;;;;;;;32.79;35.10;96166.28;4186294;28;5802;-73
2022/06/19 16:51:34;;;;;;;;;;;;;;;32.79;34.67;96160.00;4177303;28;5807;-83
2022/06/19 16:53:46;;;;;;;;;;;;;;;32.80;34.61;96162.38;4184969;28;5716;-79
2022/06/19 16:55:53;;;;;;;;;;;;;;;32.81;34.86;96166.72;4184606;28;5807;-81
2022/06/19 16:58:03;;;;;;;;;;;;;;;32.84;34.42;96160.56;4185240;28;5909;-72
2022/06/19 17:00:12;;;;;;;;;;;;;;;32.83;34.79;96161.72;4184786;28;5810;-79
2022/06/19 17:02:18;;;;;;;;;;;;;;;32.82;34.78;96162.03;4180781;28;5895;-79
2022/06/19 17:04:25;;;;;;;;;;;;;;;32.78;35.20;96172.91;4183704;28;5786;-79
2022/06/19 17:06:30;;;;;;;;;;;;;;;32.77;35.25;96165.84;4184790;28;6384;-72
2022/06/19 17:08:44;;;;;;;;;;;;;;;32.77;35.29;96174.03;4183613;28;6385;-72
2022/06/19 17:10:48;;;;;;;;;;;;;;;32.75;35.34;96168.13;4186524;28;5798;-70
2022/06/19 17:12:55;;;;;;;;;;;;;;;32.74;35.68;96166.53;4193221;28;6575;-76
2022/06/19 17:14:59;;;;;;;;;;;;;;;32.74;35.84;96169.28;4185164;28;5723;-75
2022/06/19 17:17:06;;;;;;;;;;;;;;;32.73;35.50;96153.97;4201644;28;5698;-80
2022/06/19 17:19:17;;;;;;;;;;;;;;;32.74;35.77;96174.75;4188973;28;6584;-80
2022/06/19 17:21:23;;;;;;;;;;;;;;;32.73;35.78;96168.50;4183532;28;5842;-77
2022/06/19 17:23:28;;;;;;;;;;;;;;;32.74;35.51;96158.34;4184058;28;6468;-77
2022/06/19 17:25:33;;;;;;;;;;;;;;;32.73;35.34;96171.22;4186126;28;5901;-79
2022/06/19 17:28:00;;;;;;;;;;;;;;;32.75;35.73;96170.06;4189138;28;6408;-77
2022/06/19 17:30:14;;;;;;;;;;;;;;;32.74;35.84;96172.03;4182366;28;5712;-75
2022/06/19 17:32:24;;;;;;;;;;;;;;;32.73;35.87;96171.22;4192053;28;5846;-78
2022/06/19 17:34:55;;;;;;;;;;;;;;;32.75;35.46;96167.34;4183746;28;5719;-76
2022/06/19 17:37:00;;;;;;;;;;;;;;;32.75;35.47;96175.56;4190260;28;5846;-78
2022/06/19 17:39:08;;;;;;;;;;;;;;;32.75;35.92;96170.06;4183446;28;5898;-74
2022/06/19 17:41:13;;;;;;;;;;;;;;;32.75;35.34;96170.88;4181569;28;6593;-79
2022/06/19 17:43:25;;;;;;;;;;;;;;;32.75;35.65;96173.59;4185199;28;5798;-75
2022/06/19 17:45:29;;;;;;;;;;;;;;;32.77;35.63;96165.84;4182628;28;5846;-72
2022/06/19 17:47:41;;;;;;;;;;;;;;;32.78;35.31;96167.41;4184348;28;5910;-74
2022/06/19 17:49:48;;;;;;;;;;;;;;;32.78;35.14;96161.16;4184683;28;5728;-77
2022/06/19 17:52:38;;;;;;;;;;;;;;;32.79;35.13;96166.28;4180926;28;5929;-70
2022/06/19 17:54:45;;;;;;;;;;;;;;;32.76;34.56;96160.72;4180411;28;5878;-71
2022/06/19 17:56:57;;;;;;;;;;;;;;;32.81;34.40;96163.97;4177858;28;5915;-73
2022/06/19 17:59:03;;;;;;;;;;;;;;;32.83;34.79;96164.44;4181086;28;5818;-73
2022/06/19 18:01:16;;;;;;;;;;;;;;;32.83;34.36;96164.44;4179443;28;5820;-74
2022/06/19 18:03:26;;;;;;;;;;;;;;;32.82;34.39;96162.84;4178482;28;6396;-74
2022/06/19 18:05:41;;;;;;;;;;;;;;;32.81;34.75;96163.97;4181218;28;5819;-74
2022/06/19 18:07:52;;;;;;;;;;;;;;;32.79;34.84;96155.31;4179139;28;5797;-74
2022/06/19 18:10:02;;;;;;;;;;;;;;;32.78;34.94;96156.47;4187365;28;5818;-77
2022/06/19 18:12:15;;;;;;;;;;;;;;;32.75;34.94;96156.38;4177390;28;5807;-76
2022/06/19 18:14:25;;;;;;;;;;;;;;;32.73;35.08;96151.25;4182821;28;5823;-77
2022/06/19 18:18:50;;;;;;;;;;;;;;;32.68;34.79;96146.03;4179074;28;5797;-77
2022/06/19 18:21:01;;;;;;;;;;;;;;;32.66;35.24;96142.88;4181674;28;5929;-76
2022/06/19 18:23:05;;;;;;;;;;;;;;;32.64;35.28;96156.91;4181586;28;5929;-71
2022/06/19 18:25:09;;;;;;;;;;;;;;;32.59;35.72;96148.94;4180849;28;5993;-73
2022/06/19 18:27:15;;;;;;;;;;;;;;;32.60;35.63;96157.94;4179564;28;5882;-71
2022/06/19 18:29:26;;;;;;;;;;;;;;;32.58;35.81;96154.75;4181560;28;5822;-71
2022/06/19 18:31:30;;;;;;;;;;;;;;;32.58;35.37;96165.72;4179865;28;6026;-71
2022/06/19 18:33:33;;;;;;;;;;;;;;;32.55;35.52;96163.69;4179509;28;5941;-71
2022/06/19 18:35:40;;;;;;;;;;;;;;;32.54;35.93;96170.31;4180063;28;5829;-72
2022/06/19 18:37:49;;;;;;;;;;;;;;;32.52;35.73;96164.38;4180731;28;5814;-70
2022/06/19 18:40:14;;;;;;;;;;;;;;;32.51;35.48;96173.75;4179852;28;5874;-70
2022/06/19 18:42:20;;;;;;;;;;;;;;;32.49;35.49;96176.00;4178775;28;5818;-70
2022/06/19 18:44:27;;;;;;;;;;;;;;;32.46;35.75;96176.72;4180494;28;5863;-69
2022/06/19 18:46:33;;;;;;;;;;;;;;;32.42;35.92;96176.63;4179911;28;5793;-66
2022/06/19 18:48:59;;;;;;;;;;;;;;;32.38;36.22;96181.97;4172230;28;5840;-82
2022/06/19 18:51:05;;;;;;;;;;;;;;;32.35;36.30;96188.16;4176650;28;5810;-71
2022/06/19 18:53:14;;;;;;;;;;;;;;;32.33;35.94;96184.19;4175255;28;5972;-75
2022/06/19 18:55:30;;;;;;;;;;;;;;;32.29;36.03;96186.03;4180629;28;7103;-70
2022/06/19 18:57:33;;;;;;;;;;;;;;;32.27;36.32;96197.25;4172423;28;5814;-75
2022/06/19 18:59:38;;;;;;;;;;;;;;;32.24;36.14;96192.50;4183065;28;5724;-73
2022/06/19 19:01:44;;;;;;;;;;;;;;;32.23;36.08;96201.06;4182915;28;5666;-73
2022/06/19 19:03:48;;;;;;;;;;;;;;;32.21;36.39;96209.59;4185066;28;5743;-72
2022/06/19 19:05:52;;;;;;;;;;;;;;;32.16;36.09;96202.41;4183506;28;5983;-64
2022/06/19 19:08:02;;;;;;;;;;;;;;;32.14;36.51;96198.44;4183797;28;5837;-74
2022/06/19 19:10:07;;;;;;;;;;;;;;;32.14;35.90;96193.78;4182811;28;5828;-69
2022/06/19 19:12:13;;;;;;;;;;;;;;;32.13;36.07;96196.84;4183896;28;6385;-64
2022/06/19 19:14:16;;;;;;;;;;;;;;;32.14;35.83;96203.91;4183863;28;5802;-72
2022/06/19 19:16:25;;;;;;;;;;;;;;;32.12;36.01;96196.06;4183002;28;5705;-73
2022/06/19 19:18:28;;;;;;;;;;;;;;;32.13;35.88;96202.31;4184341;28;5731;-75
2022/06/19 19:20:33;;;;;;;;;;;;;;;32.13;35.92;96210.53;4184219;28;5740;-71
2022/06/19 19:22:37;;;;;;;;;;;;;;;32.10;35.60;96203.03;4183532;28;5723;-68
2022/06/19 19:24:40;;;;;;;;;;;;;;;32.08;35.59;96211.59;4179749;28;5704;-67
2022/06/19 19:26:47;;;;;;;;;;;;;;;32.07;35.84;96209.19;4174801;28;5886;-67
2022/06/19 19:28:52;;;;;;;;;;;;;;;32.07;35.49;96220.13;4181947;28;5712;-68
2022/06/19 19:30:57;;;;;;;;;;;;;;;32.04;35.84;96215.34;4182206;28;7143;-73
2022/06/19 19:33:03;;;;;;;;;;;;;;;32.00;35.77;96214.44;4184182;28;6275;-73
2022/06/19 19:35:09;;;;;;;;;;;;;;;32.00;35.95;96212.50;4183023;28;5719;-71
2022/06/19 19:37:13;;;;;;;;;;;;;;;32.00;36.15;96219.91;4184107;28;5711;-70
2022/06/19 19:39:17;;;;;;;;;;;;;;;31.98;36.01;96231.19;4182005;28;5842;-71
2022/06/19 19:41:20;;;;;;;;;;;;;;;31.96;35.95;96224.47;4184071;28;5723;-71
2022/06/19 19:43:27;;;;;;;;;;;;;;;31.96;36.04;96227.22;4183707;28;5731;-72
2022/06/19 19:45:31;;;;;;;;;;;;;;;31.95;35.72;96228.34;4184289;28;5720;-73
2022/06/19 19:47:34;;;;;;;;;;;;;;;31.95;35.67;96228.34;4181607;28;5894;-72
2022/06/19 19:49:41;;;;;;;;;;;;;;;31.93;35.89;96234.16;4182606;28;5802;-70
2022/06/19 19:51:44;;;;;;;;;;;;;;;31.90;36.18;96231.31;4181953;28;5955;-71
2022/06/19 19:53:47;;;;;;;;;;;;;;;31.90;36.41;96236.78;4179912;28;5728;-70
2022/06/19 19:55:50;;;;;;;;;;;;;;;31.90;35.95;96236.78;4183748;28;5750;-69
2022/06/19 19:57:53;;;;;;;;;;;;;;;31.88;36.03;96233.59;4179928;28;5818;-70